Mid Ohio Valley Regional Airport
KPKB : rendu visible

Aérodrome :











RETROUVEZ-NOUS SUR...

 
LOGIN :

S'inscrire | Disclaimer

   EN    FR    IT 

 









Légende :    VFR   VFR Marginal   IFR   IFR Intensif   IFR Très Intensif
Visi : 
Plafond : 
>= 8 km
>= 3000ft
5 à 8 km
1000 à 3000 ft
1500m à 5 km
500 à 1000 ft
800 à 1500m
200 à 500 ft
< 800m
< 200 ft
Symboles :   Orages  Brouillard  Fortes neiges  Fortes précipitations  Vent > 20 kt






- Altitude de l'aérodrome : 858 ft
- Code IATA : PKB


KPKB - Mid Ohio Valley Regional

DERNIER METAR :
  • 290853Z AUTO 18009KT 10SM -RA OVC110 18/15 A2977 RMK AO2 LTG DSNT SE AND S TSB00E15 SLP071 P0003 60015 T01830150 58018

METARs EXPIRÉS :
  • 290821Z AUTO 19008KT 9SM -RA BKN100 19/16 A2978 RMK AO2 LTG DSNT E-S TSB00E15 P0003 T01890156
  • 290806Z AUTO 18009KT 8SM -TSRA FEW060 SCT070 OVC100 19/16 A2978 RMK AO2 LTG DSNT E-S TSB00 PRESFR P0001 T01890156
  • 290753Z AUTO 21013G19KT 5SM VCTS -RA BKN070 BKN080 OVC110 19/16 A2980 RMK AO2 LTG DSNT S AND SW SLP083 P0012 T01940156
  • 290713Z AUTO 12004KT 3SM -RA BR FEW048 BKN070 OVC110 18/16 A2981 RMK AO2 LTG DSNT SW P0006 T01780161
  • 290702Z AUTO VRB03KT 3SM VCTS RA BR SCT048 BKN075 OVC100 18/16 A2982 RMK AO2 LTG DSNT N P0003 T01780161

TAF KPKB
Valide du 29 à 08h jusqu'au 30 à 06h UTC


290824Z 2908/3006 19008KT P6SM TSRA BKN060CB
TEMPO 2908/2909 4SM -SHRA BR OVC025
FM290900 19009KT P6SM VCTS BKN060CB
TEMPO 2909/2912 4SM -SHRA BR OVC025
FM291400 22012G26KT P6SM BKN050
FM291600 23016G34KT P6SM SCT120
FM300000 24011G24KT P6SM SKC



MET'MAP, la Météo Aéronautique d'un coup d'oeil ! - Copyright ORBIFLY Décembre 2007 - Disclaimer

ORBIFLY MET'MAP TEAM :

Programmation & Développement : Alexandra Zaïnal
Sur une idée originale de : Baudouin d'Aumeries
Assistance à la programmation : Marc-Olivier Méhu
Soutien technique & logistique : Manuel Goepfert

Contact : metmap@orbifly.com




SOURCES & CREDITS :

   NOAA       Earth
Advisory